createdAt,value
2023-04-25T00:00:22.444Z,99246.78
2023-04-25T00:02:51.526Z,99252.56
2023-04-25T00:05:20.565Z,99238.13
2023-04-25T00:07:48.386Z,99234.63
2023-04-25T00:10:16.075Z,99235.81
2023-04-25T00:12:43.830Z,99233.44
2023-04-25T00:15:12.360Z,99241.22
2023-04-25T00:17:40.361Z,99231.81
2023-04-25T00:20:10.922Z,99242.03
2023-04-25T00:22:39.135Z,99243.19
2023-04-25T00:25:07.934Z,99241.16
2023-04-25T00:27:35.532Z,99237.72
2023-04-25T00:30:03.576Z,99244.38
2023-04-25T00:32:31.263Z,99232.97
2023-04-25T00:34:59.541Z,99236.53
2023-04-25T00:37:28.750Z,99234.59
2023-04-25T00:39:56.951Z,99249.41
2023-04-25T00:42:24.695Z,99239.66
2023-04-25T00:44:54.839Z,99238.88
2023-04-25T00:47:23.539Z,99190.50
2023-04-25T00:49:51.479Z,99226.00
2023-04-25T00:52:19.223Z,99233.88
2023-04-25T00:54:48.477Z,99234.66
2023-04-25T00:57:16.434Z,99217.38
2023-04-25T00:59:47.717Z,99222.84
2023-04-25T01:02:15.805Z,99218.84
2023-04-25T01:04:43.759Z,99230.22
2023-04-25T01:07:11.916Z,99223.59
2023-04-25T01:09:40.195Z,99223.94
2023-04-25T01:12:09.493Z,99225.13
2023-04-25T01:14:37.218Z,99223.16
2023-04-25T01:17:08.637Z,99225.94
2023-04-25T01:19:36.993Z,99219.69
2023-04-25T01:22:06.410Z,99220.84
2023-04-25T01:24:34.668Z,99213.78
2023-04-25T01:27:03.258Z,99218.44
2023-04-25T01:29:31.964Z,99221.16
2023-04-25T01:32:00.967Z,99216.88
2023-04-25T01:34:28.668Z,99211.75
2023-04-25T01:37:01.592Z,99211.34
2023-04-25T01:39:31.497Z,99218.81
2023-04-25T01:42:00.073Z,99210.63
2023-04-25T01:44:28.498Z,99210.63
2023-04-25T01:46:56.515Z,99205.16
2023-04-25T01:49:24.648Z,99208.28
2023-04-25T01:51:52.542Z,99220.41
2023-04-25T01:54:21.177Z,99214.97
2023-04-25T01:56:53.683Z,99215.72
2023-04-25T01:59:23.318Z,99202.06
2023-04-25T02:02:09.497Z,99205.97
2023-04-25T02:04:37.878Z,99208.69
2023-04-25T02:07:05.860Z,99211.44
2023-04-25T02:09:44.160Z,99220.03
2023-04-25T02:12:14.630Z,99211.44
2023-04-25T02:15:00.824Z,99209.06
2023-04-25T02:17:49.784Z,99213.03
2023-04-25T02:20:18.106Z,99203.66
2023-04-25T02:22:45.762Z,99212.28
2023-04-25T02:25:14.028Z,99207.91
2023-04-25T02:27:43.739Z,99199.69
2023-04-25T02:30:12.076Z,99212.22
2023-04-25T02:32:40.567Z,99207.50
2023-04-25T02:35:08.849Z,99197.34
2023-04-25T02:37:40.869Z,99199.25
2023-04-25T02:40:10.018Z,99204.75
2023-04-25T02:42:38.255Z,99192.50
2023-04-25T02:45:08.291Z,99200.34
2023-04-25T02:47:36.064Z,99205.47
2023-04-25T02:50:03.872Z,99207.81
2023-04-25T02:52:31.889Z,99192.19
2023-04-25T02:55:27.875Z,99199.63
2023-04-25T02:57:57.233Z,99196.13
2023-04-25T03:00:46.560Z,99193.41
2023-04-25T03:03:14.723Z,99191.84
2023-04-25T03:05:42.638Z,99187.94
2023-04-25T03:08:10.631Z,99189.50
2023-04-25T03:10:40.135Z,99182.00
2023-04-25T03:13:10.544Z,99191.81
2023-04-25T03:15:39.765Z,99190.25
2023-04-25T03:18:08.872Z,99194.16
2023-04-25T03:20:36.616Z,99194.91
2023-04-25T03:23:05.183Z,99191.00
2023-04-25T03:25:33.399Z,99188.66
2023-04-25T03:28:01.100Z,99189.41
2023-04-25T03:30:28.881Z,99190.59
2023-04-25T03:32:56.650Z,99196.44
2023-04-25T03:35:26.199Z,99198.03
2023-04-25T03:37:54.314Z,99195.31
2023-04-25T03:40:27.332Z,99200.06
2023-04-25T03:43:09.019Z,99203.94
2023-04-25T03:45:38.273Z,99200.44
2023-04-25T03:48:06.417Z,99197.34
2023-04-25T03:50:36.585Z,99196.13
2023-04-25T03:53:04.500Z,99188.69
2023-04-25T03:55:43.572Z,99186.69
2023-04-25T03:58:11.511Z,99191.78
2023-04-25T04:00:39.555Z,99200.38
2023-04-25T04:03:07.710Z,99197.25
2023-04-25T04:05:38.247Z,99204.31
2023-04-25T04:08:06.224Z,99207.44
2023-04-25T04:10:34.332Z,99209.00
2023-04-25T04:13:02.047Z,99213.31
2023-04-25T04:15:29.703Z,99212.53
2023-04-25T04:17:57.601Z,99220.38
2023-04-25T04:20:25.349Z,99209.41
2023-04-25T04:22:54.999Z,99214.50
2023-04-25T04:25:25.440Z,99206.31
2023-04-25T04:28:26.270Z,99218.06
2023-04-25T04:30:58.880Z,99213.72
2023-04-25T04:33:27.553Z,99221.56
2023-04-25T04:36:00.132Z,99220.00
2023-04-25T04:38:30.970Z,99225.13
2023-04-25T04:41:02.278Z,99216.91
2023-04-25T04:43:54.238Z,99220.03
2023-04-25T04:46:51.490Z,99223.97
2023-04-25T04:49:48.912Z,99227.50
2023-04-25T04:52:35.006Z,99220.03
2023-04-25T04:55:12.402Z,99223.59
2023-04-25T04:58:00.446Z,99233.38
2023-04-25T05:00:49.482Z,99233.75
2023-04-25T05:03:54.983Z,99238.50
2023-04-25T05:06:53.302Z,99247.16
2023-04-25T05:09:39.260Z,99247.16
2023-04-25T05:12:26.853Z,99246.75
2023-04-25T05:15:20.850Z,99253.84
2023-04-25T05:18:07.331Z,99254.66
2023-04-25T05:21:01.291Z,99255.06
2023-04-25T05:23:48.818Z,99257.44
2023-04-25T05:26:51.631Z,99263.28
2023-04-25T05:29:42.614Z,99258.56
2023-04-25T05:32:26.990Z,99238.13
2023-04-25T05:34:55.074Z,99262.06
2023-04-25T05:37:33.685Z,99255.09
2023-04-25T05:40:11.175Z,99262.19
2023-04-25T05:42:57.460Z,99258.69
2023-04-25T05:45:49.446Z,99260.28
2023-04-25T05:48:43.297Z,99260.75
2023-04-25T05:51:22.402Z,99248.59
2023-04-25T05:53:50.276Z,99259.63
2023-04-25T05:56:18.228Z,99261.66
2023-04-25T05:58:48.149Z,99269.13
2023-04-25T06:01:17.242Z,99269.91
2023-04-25T06:03:46.241Z,99275.81
2023-04-25T06:06:14.105Z,99271.41
2023-04-25T06:08:42.383Z,99274.59
2023-04-25T06:11:12.662Z,99275.41
2023-04-25T06:13:40.316Z,99281.66
2023-04-25T06:16:08.820Z,99276.19
2023-04-25T06:18:37.850Z,99276.91
2023-04-25T06:21:06.068Z,99282.06
2023-04-25T06:23:34.686Z,99286.38
2023-04-25T06:26:08.362Z,99289.53
2023-04-25T06:28:39.130Z,99295.03
2023-04-25T06:31:06.894Z,99295.34
2023-04-25T06:33:34.632Z,99296.13
2023-04-25T06:36:05.790Z,99292.19
2023-04-25T06:38:35.685Z,99293.28
2023-04-25T06:41:03.684Z,99296.81
2023-04-25T06:43:34.657Z,99307.00
2023-04-25T06:46:12.171Z,99291.38
2023-04-25T06:48:45.193Z,99295.59
2023-04-25T06:51:15.049Z,99299.94
2023-04-25T06:53:43.718Z,99308.91
2023-04-25T06:56:23.103Z,99310.97
2023-04-25T06:59:13.942Z,99311.44
2023-04-25T07:01:42.597Z,99304.78
2023-04-25T07:04:18.262Z,99308.97
2023-04-25T07:06:52.395Z,99314.56
2023-04-25T07:09:25.300Z,99316.22
2023-04-25T07:11:53.566Z,99325.31
2023-04-25T07:14:21.220Z,99325.66
2023-04-25T07:16:50.540Z,99325.31
2023-04-25T07:19:18.312Z,99320.22
2023-04-25T07:21:46.386Z,99324.13
2023-04-25T07:24:15.500Z,99328.81
2023-04-25T07:26:47.119Z,99324.13
2023-04-25T07:29:20.571Z,99332.78
2023-04-25T07:31:48.234Z,99333.13
2023-04-25T07:34:16.566Z,99335.13
2023-04-25T07:36:46.073Z,99341.34
2023-04-25T07:39:15.420Z,99326.78
2023-04-25T07:41:43.370Z,99335.44
2023-04-25T07:44:16.198Z,99334.69
2023-04-25T07:46:44.272Z,99336.69
2023-04-25T07:49:12.787Z,99342.19
2023-04-25T07:51:44.186Z,99344.53
2023-04-25T07:54:16.866Z,99353.25
2023-04-25T07:56:53.412Z,99365.06
2023-04-25T07:59:23.610Z,99360.75
2023-04-25T08:01:51.466Z,99371.34
2023-04-25T08:04:21.244Z,99370.16
2023-04-25T08:06:56.345Z,99368.59
2023-04-25T08:09:30.287Z,99367.78
2023-04-25T08:11:58.589Z,99376.81
2023-04-25T08:14:36.305Z,99383.09
2023-04-25T08:17:05.290Z,99376.34
2023-04-25T08:19:35.526Z,99396.38
2023-04-25T08:22:04.486Z,99401.53
2023-04-25T08:24:44.830Z,99401.94
2023-04-25T08:27:13.336Z,99407.69
2023-04-25T08:29:44.182Z,99410.06
2023-04-25T08:32:13.008Z,99414.47
2023-04-25T08:34:47.925Z,99417.50
2023-04-25T08:37:15.974Z,99411.25
2023-04-25T08:39:57.700Z,99414.38
2023-04-25T08:42:52.468Z,99423.13
2023-04-25T08:45:20.654Z,99420.00
2023-04-25T08:47:50.625Z,99430.22
2023-04-25T08:50:20.218Z,99435.41
2023-04-25T08:52:50.454Z,99430.28
2023-04-25T08:55:20.395Z,99446.31
2023-04-25T08:57:50.224Z,99445.88
2023-04-25T09:00:20.283Z,99448.91
2023-04-25T09:02:49.364Z,99455.84
2023-04-25T09:05:18.369Z,99454.09
2023-04-25T09:07:48.560Z,99460.81
2023-04-25T09:10:20.169Z,99473.69
2023-04-25T09:13:04.493Z,99475.19
2023-04-25T09:15:33.262Z,99477.25
2023-04-25T09:18:13.352Z,99466.16
2023-04-25T09:21:00.825Z,99468.50
2023-04-25T09:23:33.881Z,99468.81
2023-04-25T09:26:02.925Z,99480.22
2023-04-25T09:28:31.073Z,99469.03
2023-04-25T09:31:00.988Z,99482.00
2023-04-25T09:33:37.212Z,99486.63
2023-04-25T09:36:08.446Z,99490.88
2023-04-25T09:39:01.770Z,99481.69
2023-04-25T09:41:33.528Z,99495.84
2023-04-25T09:44:03.971Z,99498.75
2023-04-25T09:46:37.344Z,99496.44
2023-04-25T09:49:08.790Z,99498.75
2023-04-25T09:52:02.311Z,99501.69
2023-04-25T09:54:36.370Z,99492.25
2023-04-25T09:57:18.200Z,99498.06
2023-04-25T09:59:47.712Z,99498.56
2023-04-25T10:02:17.450Z,99506.53
2023-04-25T10:04:49.358Z,99515.94
2023-04-25T10:07:26.961Z,99508.75
2023-04-25T10:10:00.591Z,99515.22
2023-04-25T10:12:30.038Z,99515.75
2023-04-25T10:14:59.639Z,99519.06
2023-04-25T10:17:28.735Z,99520.84
2023-04-25T10:19:57.334Z,99520.41
2023-04-25T10:22:31.397Z,99526.28
2023-04-25T10:25:00.223Z,99520.44
2023-04-25T10:27:30.896Z,99525.75
2023-04-25T10:30:06.185Z,99524.75
2023-04-25T10:32:34.579Z,99523.06
2023-04-25T10:35:13.269Z,99521.41
2023-04-25T10:37:58.109Z,99525.00
2023-04-25T10:40:26.177Z,99523.59
2023-04-25T10:42:56.056Z,99522.09
2023-04-25T10:45:24.209Z,99522.28
2023-04-25T10:47:51.969Z,99517.41
2023-04-25T10:50:19.665Z,99523.91
2023-04-25T10:52:47.324Z,99528.22
2023-04-25T10:55:15.003Z,99531.13
2023-04-25T10:57:44.874Z,99533.03
2023-04-25T11:00:16.996Z,99496.94
2023-04-25T11:02:47.992Z,99535.56
2023-04-25T11:05:25.818Z,99543.19
2023-04-25T11:08:06.380Z,99547.91
2023-04-25T11:10:36.469Z,99551.38
2023-04-25T11:13:04.691Z,99539.03
2023-04-25T11:15:33.790Z,99549.25
2023-04-25T11:18:02.247Z,99548.09
2023-04-25T11:20:30.585Z,99541.03
2023-04-25T11:23:00.948Z,99550.16
2023-04-25T11:25:28.739Z,99556.06
2023-04-25T11:27:59.386Z,99561.94
2023-04-25T11:30:29.668Z,99558.75
2023-04-25T11:32:58.810Z,99562.03
2023-04-25T11:35:27.196Z,99565.13
2023-04-25T11:37:54.837Z,99560.66
2023-04-25T11:40:22.745Z,99536.75
2023-04-25T11:42:50.854Z,99564.47
2023-04-25T11:45:20.773Z,99559.38
2023-04-25T11:47:48.925Z,99564.75
2023-04-25T11:50:17.885Z,99569.72
2023-04-25T11:52:47.393Z,99569.84
2023-04-25T11:55:17.092Z,99571.47
2023-04-25T11:57:46.455Z,99585.22
2023-04-25T12:00:18.672Z,99584.78
2023-04-25T12:02:49.024Z,99580.75
2023-04-25T12:07:50.052Z,99584.97
2023-04-25T12:10:19.411Z,99587.88
2023-04-25T12:12:48.838Z,99583.25
2023-04-25T12:15:20.180Z,99586.19
2023-04-25T12:17:49.187Z,99583.78
2023-04-25T12:20:20.625Z,99587.66
2023-04-25T12:22:49.999Z,99584.72
2023-04-25T12:25:36.402Z,99592.97
2023-04-25T12:28:14.378Z,99596.84
2023-04-25T12:31:00.130Z,99589.25
2023-04-25T12:33:29.456Z,99591.22
2023-04-25T12:35:59.398Z,99600.03
2023-04-25T12:38:28.807Z,99584.00
2023-04-25T12:40:56.788Z,99584.81
2023-04-25T12:43:24.494Z,99585.84
2023-04-25T12:45:52.879Z,99597.09
2023-04-25T12:48:21.430Z,99583.94
2023-04-25T12:50:50.676Z,99596.09
2023-04-25T12:53:20.405Z,99593.72
2023-04-25T12:55:49.118Z,99606.34
2023-04-25T12:58:18.285Z,99605.91
2023-04-25T13:00:46.657Z,99603.50
2023-04-25T13:03:14.511Z,99596.41
2023-04-25T13:05:42.633Z,99603.22
2023-04-25T13:08:10.277Z,99613.19
2023-04-25T13:10:40.252Z,99605.25
2023-04-25T13:13:08.184Z,99603.19
2023-04-25T13:15:36.222Z,99602.03
2023-04-25T13:18:04.952Z,99600.09
2023-04-25T13:20:33.316Z,99601.97
2023-04-25T13:23:02.731Z,99602.75
2023-04-25T13:25:30.814Z,99600.78
2023-04-25T13:27:59.792Z,99603.22
2023-04-25T13:30:27.568Z,99592.47
2023-04-25T13:32:57.265Z,99601.41
2023-04-25T13:35:25.159Z,99587.28
2023-04-25T13:37:52.829Z,99598.66
2023-04-25T13:40:21.327Z,99598.50
2023-04-25T13:42:50.163Z,99603.94
2023-04-25T13:45:19.356Z,99593.75
2023-04-25T13:47:47.196Z,99609.16
2023-04-25T13:50:15.666Z,99613.78
2023-04-25T13:52:43.488Z,99613.22
2023-04-25T13:55:11.831Z,99606.88
2023-04-25T13:57:41.284Z,99616.06
2023-04-25T14:00:10.898Z,99611.81
2023-04-25T14:02:40.578Z,99619.97
2023-04-25T14:05:10.146Z,99622.69
2023-04-25T14:07:38.396Z,99616.00
2023-04-25T14:10:07.874Z,99621.09
2023-04-25T14:12:36.065Z,99600.47
2023-04-25T14:15:04.179Z,99629.03
2023-04-25T14:17:31.930Z,99626.81
2023-04-25T14:20:01.056Z,99634.28
2023-04-25T14:22:28.685Z,99634.34
2023-04-25T14:24:56.749Z,99646.06
2023-04-25T14:27:24.950Z,99646.69
2023-04-25T14:29:53.963Z,99640.56
2023-04-25T14:32:22.037Z,99641.44
2023-04-25T14:34:49.736Z,99640.72
2023-04-25T14:37:18.764Z,99650.25
2023-04-25T14:39:46.577Z,99639.59
2023-04-25T14:42:14.252Z,99631.28
2023-04-25T14:44:42.039Z,99633.53
2023-04-25T14:47:10.361Z,99633.09
2023-04-25T14:49:38.034Z,99640.56
2023-04-25T14:52:06.069Z,99633.97
2023-04-25T14:54:35.442Z,99633.56
2023-04-25T14:57:03.303Z,99651.59
2023-04-25T14:59:31.003Z,99640.06
2023-04-25T15:01:59.877Z,99647.88
2023-04-25T15:04:27.970Z,99654.97
2023-04-25T15:06:56.384Z,99653.75
2023-04-25T15:09:24.996Z,99654.19
2023-04-25T15:11:54.199Z,99655.19
2023-04-25T15:14:21.890Z,99663.38
2023-04-25T15:16:49.644Z,99653.09
2023-04-25T15:19:17.548Z,99655.47
2023-04-25T15:21:45.200Z,99654.34
2023-04-25T15:24:15.959Z,99658.72
2023-04-25T15:26:43.640Z,99655.53
2023-04-25T15:29:12.726Z,99660.94
2023-04-25T15:31:40.490Z,99660.09
2023-04-25T15:34:08.243Z,99666.38
2023-04-25T15:36:35.992Z,99669.59
2023-04-25T15:39:03.737Z,99666.94
2023-04-25T15:41:31.402Z,99671.19
2023-04-25T15:44:01.510Z,99665.00
2023-04-25T15:46:31.956Z,99668.47
2023-04-25T15:48:59.741Z,99672.50
2023-04-25T15:51:28.084Z,99672.91
2023-04-25T15:53:56.352Z,99679.53
2023-04-25T15:56:24.510Z,99675.94
2023-04-25T15:58:52.540Z,99675.56
2023-04-25T16:01:24.084Z,99670.97
2023-04-25T16:03:53.458Z,99669.38
2023-04-25T16:06:22.220Z,99680.31
2023-04-25T16:08:49.898Z,99671.69
2023-04-25T16:11:17.627Z,99679.19
2023-04-25T16:13:45.781Z,99659.44
2023-04-25T16:16:13.579Z,99674.06
2023-04-25T16:18:41.337Z,99679.94
2023-04-25T16:21:11.605Z,99673.28
2023-04-25T16:23:39.312Z,99678.38
2023-04-25T16:26:08.758Z,99679.53
2023-04-25T16:28:36.620Z,99677.53
2023-04-25T16:31:04.361Z,99682.06
2023-04-25T16:33:33.088Z,99677.72
2023-04-25T16:36:00.766Z,99682.06
2023-04-25T16:38:29.765Z,99689.97
2023-04-25T16:40:57.447Z,99682.09
2023-04-25T16:43:25.141Z,99691.16
2023-04-25T16:45:53.103Z,99692.75
2023-04-25T16:48:24.160Z,99681.34
2023-04-25T16:50:52.733Z,99693.16
2023-04-25T16:53:21.984Z,99690.41
2023-04-25T16:55:51.348Z,99692.38
2023-04-25T16:58:19.058Z,99701.81
2023-04-25T17:00:47.245Z,99697.09
2023-04-25T17:03:15.013Z,99690.78
2023-04-25T17:05:42.785Z,99685.69
2023-04-25T17:08:10.480Z,99696.72
2023-04-25T17:10:38.207Z,99703.38
2023-04-25T17:13:07.703Z,99702.94
2023-04-25T17:15:35.903Z,99709.28
2023-04-25T17:18:03.622Z,99710.81
2023-04-25T17:20:31.429Z,99713.97
2023-04-25T17:22:59.870Z,99707.28
2023-04-25T17:25:27.856Z,99706.88
2023-04-25T17:27:55.725Z,99711.53
2023-04-25T17:30:24.778Z,99713.44
2023-04-25T17:32:52.487Z,99718.97
2023-04-25T17:35:20.290Z,99724.00
2023-04-25T17:37:48.575Z,99722.03
2023-04-25T17:40:16.212Z,99733.03
2023-04-25T17:42:44.311Z,99730.66
2023-04-25T17:45:12.940Z,99724.72
2023-04-25T17:47:42.255Z,99721.19
2023-04-25T17:50:10.414Z,99735.34
2023-04-25T17:52:38.657Z,99737.59
2023-04-25T17:55:07.672Z,99731.28
2023-04-25T17:57:35.468Z,99746.97
2023-04-25T18:00:05.798Z,99735.16
2023-04-25T18:02:40.045Z,99743.84
2023-04-25T18:05:10.713Z,99751.28
2023-04-25T18:07:38.607Z,99751.16
2023-04-25T18:10:07.422Z,99752.72
2023-04-25T18:12:35.868Z,99758.53
2023-04-25T18:15:06.724Z,99763.50
2023-04-25T18:17:39.679Z,99773.97
2023-04-25T18:20:15.647Z,99776.22
2023-04-25T18:22:44.378Z,99774.09
2023-04-25T18:25:13.641Z,99778.44
2023-04-25T18:27:42.292Z,99775.59
2023-04-25T18:30:12.165Z,99775.19
2023-04-25T18:32:39.976Z,99779.81
2023-04-25T18:35:11.325Z,99788.75
2023-04-25T18:37:40.994Z,99788.31
2023-04-25T18:40:13.759Z,99794.13
2023-04-25T18:42:41.543Z,99814.06
2023-04-25T18:45:10.262Z,99809.75
2023-04-25T18:47:37.953Z,99811.25
2023-04-25T18:50:06.891Z,99815.53
2023-04-25T18:52:36.320Z,99825.69
2023-04-25T18:55:04.736Z,99814.69
2023-04-25T18:57:32.961Z,99822.84
2023-04-25T19:00:05.089Z,99817.66
2023-04-25T19:02:33.096Z,99817.94
2023-04-25T19:05:01.370Z,99822.13
2023-04-25T19:07:30.880Z,99827.41
2023-04-25T19:10:00.346Z,99824.94
2023-04-25T19:12:27.961Z,99834.19
2023-04-25T19:14:56.151Z,99829.25
2023-04-25T19:17:24.032Z,99846.47
2023-04-25T19:19:51.735Z,99830.47
2023-04-25T19:22:19.461Z,99829.75
2023-04-25T19:24:50.566Z,99825.34
2023-04-25T19:27:24.710Z,99840.03
2023-04-25T19:29:58.072Z,99850.56
2023-04-25T19:32:26.337Z,99844.09
2023-04-25T19:34:54.214Z,99860.53
2023-04-25T19:37:21.892Z,99793.53
2023-04-25T19:39:49.541Z,99852.81
2023-04-25T19:42:19.121Z,99857.16
2023-04-25T19:44:48.481Z,99860.25
2023-04-25T19:47:16.360Z,99859.38
2023-04-25T19:49:44.035Z,99863.94
2023-04-25T19:52:15.048Z,99860.13
2023-04-25T19:54:42.921Z,99866.97
2023-04-25T19:57:10.582Z,99865.66
2023-04-25T19:59:38.450Z,99873.38
2023-04-25T20:02:09.028Z,99877.34
2023-04-25T20:04:37.012Z,99875.25
2023-04-25T20:07:04.720Z,99881.44
2023-04-25T20:09:32.758Z,99889.53
2023-04-25T20:12:00.455Z,99892.69
2023-04-25T20:14:28.164Z,99886.13
2023-04-25T20:16:55.914Z,99884.47
2023-04-25T20:19:24.952Z,99875.97
2023-04-25T20:21:52.644Z,99877.19
2023-04-25T20:24:20.325Z,99878.78
2023-04-25T20:26:47.950Z,99880.22
2023-04-25T20:29:15.596Z,99877.84
2023-04-25T20:31:43.956Z,99879.28
2023-04-25T20:34:11.694Z,99882.38
2023-04-25T20:36:40.816Z,99877.63
2023-04-25T20:39:08.512Z,99883.88
2023-04-25T20:41:37.577Z,99885.19
2023-04-25T20:44:07.459Z,99883.25
2023-04-25T20:46:36.237Z,99890.81
2023-04-25T20:49:05.320Z,99883.38
2023-04-25T20:51:33.503Z,99897.59
2023-04-25T20:54:03.754Z,99903.50
2023-04-25T20:56:32.761Z,99898.66
2023-04-25T20:59:00.703Z,99901.69
2023-04-25T21:01:28.870Z,99894.91
2023-04-25T21:03:56.674Z,99895.34
2023-04-25T21:06:24.639Z,99903.63
2023-04-25T21:08:52.875Z,99901.03
2023-04-25T21:11:23.221Z,99905.63
2023-04-25T21:13:51.674Z,99908.50
2023-04-25T21:16:19.575Z,99908.06
2023-04-25T21:18:47.911Z,99904.63
2023-04-25T21:21:15.857Z,99906.66
2023-04-25T21:23:43.542Z,99910.19
2023-04-25T21:26:11.400Z,99911.25
2023-04-25T21:28:40.389Z,99917.75
2023-04-25T21:31:08.176Z,99905.53
2023-04-25T21:33:35.975Z,99913.53
2023-04-25T21:36:03.827Z,99897.94
2023-04-25T21:38:31.593Z,99907.56
2023-04-25T21:40:59.331Z,99912.31
2023-04-25T21:43:26.977Z,99917.53
2023-04-25T21:46:11.489Z,99911.63
2023-04-25T21:48:42.844Z,99916.84
2023-04-25T21:51:10.581Z,99917.56
2023-04-25T21:53:38.232Z,99913.69
2023-04-25T21:56:06.219Z,99918.47
2023-04-25T21:58:33.969Z,99920.75
2023-04-25T22:01:03.470Z,99927.28
2023-04-25T22:03:31.350Z,99931.25
2023-04-25T22:05:59.409Z,99936.09
2023-04-25T22:08:27.048Z,99939.00
2023-04-25T22:15:08.665Z,99936.94
2023-04-25T22:17:38.714Z,99929.09
2023-04-25T22:20:10.387Z,99939.41
2023-04-25T22:22:38.017Z,99942.81
2023-04-25T22:25:07.230Z,99949.22
2023-04-25T22:27:35.076Z,99935.81
2023-04-25T22:30:03.303Z,99955.13
2023-04-25T22:32:31.430Z,99959.63
2023-04-25T22:35:00.359Z,99964.47
2023-04-25T22:37:28.748Z,99962.78
2023-04-25T22:39:56.406Z,99954.22
2023-04-25T22:42:24.123Z,99961.84
2023-04-25T22:44:52.052Z,99967.66
2023-04-25T22:47:21.577Z,99959.66
2023-04-25T22:49:49.574Z,99969.34
2023-04-25T22:52:18.536Z,99971.06
2023-04-25T22:54:46.403Z,99975.19
2023-04-25T22:57:14.168Z,99973.28
2023-04-25T22:59:41.783Z,99975.44
2023-04-25T23:02:09.403Z,99985.81
2023-04-25T23:04:37.847Z,99978.44
2023-04-25T23:07:05.992Z,99988.91
2023-04-25T23:09:34.956Z,99988.53
2023-04-25T23:12:02.552Z,99983.13
2023-04-25T23:14:30.179Z,99988.94
2023-04-25T23:16:57.776Z,99990.31
2023-04-25T23:19:26.487Z,99989.41
2023-04-25T23:21:54.080Z,99988.28
2023-04-25T23:24:21.777Z,99983.94
2023-04-25T23:26:50.782Z,99980.44
2023-04-25T23:29:18.386Z,99984.66
2023-04-25T23:31:46.026Z,99980.56
2023-04-25T23:34:13.893Z,99983.38
2023-04-25T23:36:41.706Z,99986.56
2023-04-25T23:39:10.355Z,99992.25
2023-04-25T23:41:37.924Z,99977.78
2023-04-25T23:44:08.779Z,99984.28
2023-04-25T23:46:36.674Z,99987.09
2023-04-25T23:49:04.501Z,99989.13
2023-04-25T23:51:32.326Z,99992.88
2023-04-25T23:54:00.182Z,99996.34
2023-04-25T23:56:27.827Z,99988.13
2023-04-25T23:58:55.865Z,99994.91
